Time;durP1;ratioP1;P1;durP2;ratioP2;P2;SDS_P1;SDS_P2;PMS_P1;PMS_P2;Temp;Humidity;BMP_temperature;BMP_pressure;BME280_temperature;BME280_humidity;BME280_pressure;Samples;Min_cycle;Max_cycle;Signal;HPM_P1;HPM_P2
2022/08/02 00:02:21;;;;;;;9.27;5.27;;;;;;;16.97;82.14;100178.38;5053646;28;20029;-79
2022/08/02 00:04:46;;;;;;;9.67;5.37;;;;;;;16.85;82.64;100179.66;5053626;28;20261;-79
2022/08/02 00:07:13;;;;;;;11.93;4.68;;;;;;;16.75;83.41;100180.63;5054032;28;20261;-79
2022/08/02 00:09:39;;;;;;;9.48;5.60;;;;;;;16.79;83.18;100189.94;5053598;28;20071;-79
2022/08/02 00:12:04;;;;;;;8.05;4.35;;;;;;;16.68;83.20;100180.97;5053047;28;20029;-79
2022/08/02 00:14:29;;;;;;;7.90;4.43;;;;;;;16.68;83.29;100183.72;5053349;28;20112;-79
2022/08/02 00:16:55;;;;;;;14.38;5.68;;;;;;;16.67;82.24;100187.63;5053596;28;20056;-78
2022/08/02 00:19:20;;;;;;;10.18;5.00;;;;;;;16.75;83.69;100190.81;5053890;28;20104;-79
2022/08/02 00:21:45;;;;;;;8.27;4.15;;;;;;;16.83;83.10;100190.16;5053073;28;20029;-79
2022/08/02 00:24:11;;;;;;;12.23;5.47;;;;;;;16.84;83.13;100186.25;5053867;28;20116;-80
2022/08/02 00:26:36;;;;;;;9.10;4.85;;;;;;;16.84;83.37;100197.28;5052907;28;20458;-79
2022/08/02 00:29:02;;;;;;;11.90;4.90;;;;;;;16.85;83.49;100198.94;5052950;28;20480;-79
2022/08/02 00:31:28;;;;;;;9.27;4.88;;;;;;;16.91;83.17;100192.25;5053224;28;20025;-78
2022/08/02 00:33:53;;;;;;;319.63;46.67;;;;;;;17.02;82.92;100194.84;5056925;28;20064;-78
2022/08/02 00:36:18;;;;;;;13.20;4.35;;;;;;;17.14;81.64;100189.75;5056369;28;20094;-79
2022/08/02 00:38:45;;;;;;;10.98;5.53;;;;;;;17.08;82.56;100190.91;5055685;28;20507;-78
2022/08/02 00:41:16;;;;;;;10.25;5.28;;;;;;;17.01;82.55;100187.69;5056365;28;20025;-78
2022/08/02 00:43:42;;;;;;;9.18;5.03;;;;;;;16.95;82.63;100186.13;5055958;28;20027;-78
2022/08/02 00:46:08;;;;;;;9.85;5.43;;;;;;;16.83;82.46;100178.31;5056529;28;20025;-78
2022/08/02 00:48:34;;;;;;;8.55;4.53;;;;;;;16.68;83.31;100189.25;5056457;28;20372;-79
2022/08/02 00:50:59;;;;;;;12.43;4.75;;;;;;;16.76;83.10;100178.69;5056147;28;20095;-79
2022/08/02 00:53:24;;;;;;;7.63;4.30;;;;;;;16.64;83.28;100179.94;5057149;28;20036;-79
2022/08/02 00:55:50;;;;;;;8.48;4.70;;;;;;;16.61;83.88;100172.28;5056842;28;20406;-79
2022/08/02 00:58:15;;;;;;;8.43;5.35;;;;;;;16.75;83.73;100182.56;5056820;28;20025;-79
2022/08/02 01:00:40;;;;;;;9.05;5.00;;;;;;;16.91;82.41;100186.72;5056399;28;20041;-79
2022/08/02 01:03:06;;;;;;;9.23;3.90;;;;;;;16.87;82.29;100185.69;5056134;28;20031;-78
2022/08/02 01:05:31;;;;;;;9.33;4.10;;;;;;;16.95;81.92;100188.88;5056198;28;20366;-78
2022/08/02 01:07:56;;;;;;;7.95;4.20;;;;;;;16.87;82.43;100188.44;5055860;28;20261;-78
2022/08/02 01:10:23;;;;;;;11.10;5.07;;;;;;;16.84;83.05;100190.97;5056865;28;20025;-79
2022/08/02 01:12:48;;;;;;;9.13;4.72;;;;;;;16.76;83.46;100186.97;5056081;28;20033;-78
2022/08/02 01:15:16;;;;;;;10.23;5.65;;;;;;;16.72;83.37;100183.16;5055641;28;20029;-78
2022/08/02 01:18:23;;;;;;;15.45;4.68;;;;;;;16.69;83.12;100179.88;5055915;28;20028;-78
2022/08/02 01:21:09;;;;;;;9.65;4.15;;;;;;;16.59;83.13;100173.69;5056229;28;20025;-78
2022/08/02 01:23:56;;;;;;;9.23;4.40;;;;;;;16.50;83.88;100177.09;5055558;28;20032;-78
2022/08/02 01:26:43;;;;;;;9.18;4.15;;;;;;;16.53;83.52;100181.19;5055567;28;20029;-78
2022/08/02 01:29:33;;;;;;;8.05;4.10;;;;;;;16.42;83.47;100170.31;5056424;28;20060;-78
2022/08/02 01:32:10;;;;;;;10.18;5.10;;;;;;;16.39;83.95;100172.84;5056299;28;20067;-78
2022/08/02 01:34:44;;;;;;;8.15;4.45;;;;;;;16.43;83.93;100160.94;5056200;28;20463;-78
2022/08/02 01:37:15;;;;;;;12.73;4.00;;;;;;;16.43;84.06;100163.69;5056478;28;20116;-78
2022/08/02 01:39:43;;;;;;;9.15;5.45;;;;;;;16.33;83.87;100166.59;5055811;28;20067;-78
2022/08/02 01:42:09;;;;;;;9.30;4.45;;;;;;;16.32;84.74;100178.69;5055207;28;20028;-78
2022/08/02 01:44:37;;;;;;;13.40;5.07;;;;;;;16.42;84.79;100181.31;5054019;28;20029;-78
2022/08/02 01:47:06;;;;;;;11.15;6.07;;;;;;;16.66;84.00;100172.19;5055688;28;20021;-78
2022/08/02 01:49:34;;;;;;;7.68;5.47;;;;;;;16.65;83.87;100170.56;5056001;28;20041;-77
2022/08/02 01:54:49;;;;;;;14.93;4.97;;;;;;;16.47;84.60;100165.88;5055513;28;20032;-78
2022/08/02 01:57:16;;;;;;;8.93;4.45;;;;;;;16.52;84.24;100158.34;5054842;28;20520;-78
2022/08/02 01:59:43;;;;;;;9.50;4.93;;;;;;;16.43;83.83;100155.44;5055471;28;20032;-78
2022/08/02 02:02:09;;;;;;;9.43;5.50;;;;;;;16.37;84.56;100169.56;5055143;28;20446;-78
2022/08/02 02:04:36;;;;;;;12.23;4.70;;;;;;;16.30;84.03;100162.47;5054846;28;20051;-78
2022/08/02 02:07:04;;;;;;;8.32;5.32;;;;;;;16.20;84.43;100157.94;5054786;28;20510;-78
2022/08/02 02:09:34;;;;;;;10.30;4.38;;;;;;;16.22;84.70;100160.38;5054888;28;20032;-78
2022/08/02 02:12:00;;;;;;;13.00;6.25;;;;;;;16.21;84.87;100162.31;5055823;28;20032;-78
2022/08/02 02:14:26;;;;;;;11.82;5.65;;;;;;;16.24;84.96;100157.31;5055603;28;20029;-78
2022/08/02 02:16:54;;;;;;;9.30;5.28;;;;;;;16.27;84.35;100151.25;5054142;28;20021;-78
2022/08/02 02:19:20;;;;;;;11.27;5.10;;;;;;;16.21;84.08;100148.56;5054529;28;20039;-78
2022/08/02 02:21:46;;;;;;;9.00;4.80;;;;;;;16.27;83.93;100146.56;5055297;28;20055;-78
2022/08/02 02:24:11;;;;;;;10.95;5.43;;;;;;;16.32;83.40;100152.00;5054718;28;20446;-78
2022/08/02 02:26:38;;;;;;;14.50;5.60;;;;;;;16.31;83.69;100153.09;5055199;28;20091;-78
2022/08/02 02:29:07;;;;;;;13.18;5.10;;;;;;;16.38;82.96;100150.00;5055258;28;20024;-78
2022/08/02 02:31:36;;;;;;;20.77;7.03;;;;;;;16.30;83.07;100150.66;5054956;28;20029;-78
2022/08/02 02:34:04;;;;;;;8.77;4.82;;;;;;;16.16;83.20;100145.88;5054731;28;20021;-78
2022/08/02 02:36:32;;;;;;;9.93;6.50;;;;;;;16.05;84.25;100156.16;5054303;28;20378;-78
2022/08/02 02:39:02;;;;;;;8.50;5.32;;;;;;;15.98;84.54;100151.00;5054599;28;20028;-78
2022/08/02 02:41:27;;;;;;;8.73;5.07;;;;;;;15.85;84.83;100143.44;5054262;28;20033;-78
2022/08/02 02:43:55;;;;;;;10.65;4.35;;;;;;;15.82;85.43;100135.78;5054050;28;20021;-78
2022/08/02 02:46:21;;;;;;;9.63;5.50;;;;;;;15.91;85.50;100134.00;5054309;28;20028;-78
2022/08/02 02:48:50;;;;;;;11.35;4.30;;;;;;;15.94;84.70;100138.94;5054382;28;20053;-78
2022/08/02 02:51:15;;;;;;;9.80;4.65;;;;;;;15.97;84.12;100134.78;5054111;28;20032;-78
2022/08/02 02:53:43;;;;;;;10.77;4.20;;;;;;;15.90;84.19;100129.66;5054507;28;20025;-78
2022/08/02 02:56:10;;;;;;;9.88;4.93;;;;;;;15.88;84.50;100124.41;5053527;28;20021;-78
2022/08/02 02:58:37;;;;;;;9.30;4.57;;;;;;;15.80;84.74;100127.00;5054168;28;20025;-78
2022/08/02 03:03:48;;;;;;;;;;;;;;;15.93;84.84;100128.22;5054259;28;20098;-78
2022/08/02 03:06:13;;;;;;;10.98;4.88;;;;;;;15.85;84.53;100121.44;5054096;28;19954;-78
2022/08/02 03:08:39;;;;;;;10.43;5.10;;;;;;;16.06;84.89;100111.06;5054269;28;20389;-78
2022/08/02 03:11:05;;;;;;;8.52;5.15;;;;;;;16.05;84.23;100106.66;5053626;28;20257;-78
2022/08/02 03:13:31;;;;;;;12.85;5.97;;;;;;;15.93;84.49;100109.81;5054024;28;20096;-77
2022/08/02 03:15:58;;;;;;;8.98;5.22;;;;;;;15.91;84.52;100117.53;5054532;28;20104;-78
2022/08/02 03:18:35;;;;;;;9.18;4.95;;;;;;;15.94;84.99;100116.94;5054455;28;20077;-78
2022/08/02 03:21:06;;;;;;;11.75;6.75;;;;;;;15.84;85.04;100117.06;5055062;28;20017;-78
2022/08/02 03:23:32;;;;;;;15.00;7.60;;;;;;;15.81;85.56;100123.13;5053479;28;20059;-78
2022/08/02 03:25:58;;;;;;;9.98;6.22;;;;;;;15.93;85.50;100133.72;5053785;28;20029;-78
2022/08/02 03:28:24;;;;;;;18.67;6.38;;;;;;;15.97;84.96;100127.34;5054294;28;20516;-78
2022/08/02 03:30:49;;;;;;;15.43;7.93;;;;;;;15.89;84.67;100136.25;5053787;28;20411;-78
2022/08/02 03:33:15;;;;;;;9.82;6.60;;;;;;;15.85;85.36;100136.00;5053735;28;20025;-78
2022/08/02 03:35:42;;;;;;;12.18;5.90;;;;;;;15.82;85.30;100135.78;5054166;28;20024;-78
2022/08/02 03:38:08;;;;;;;13.15;6.35;;;;;;;15.84;84.66;100122.56;5054156;28;20029;-78
2022/08/02 03:40:35;;;;;;;11.70;6.80;;;;;;;15.87;83.98;100121.97;5053615;28;20067;-78
2022/08/02 03:43:01;;;;;;;8.55;5.75;;;;;;;15.90;83.41;100115.91;5053876;28;20103;-78
2022/08/02 03:45:27;;;;;;;9.25;5.30;;;;;;;15.83;nan;100101.66;5053627;28;20485;-78
2022/08/02 03:47:52;;;;;;;10.93;6.57;;;;;;;15.89;84.67;100108.75;5053891;28;20351;-78
2022/08/02 03:50:18;;;;;;;10.85;6.47;;;;;;;15.91;84.64;100105.69;5053337;28;20039;-78
2022/08/02 03:52:46;;;;;;;11.00;5.25;;;;;;;15.94;84.14;100105.97;5053872;28;20028;-78
2022/08/02 03:55:12;;;;;;;11.52;5.57;;;;;;;15.98;83.88;100098.75;5053682;28;20060;-78
2022/08/02 03:57:39;;;;;;;9.68;4.95;;;;;;;15.99;84.16;100107.81;5053483;28;20067;-78
2022/08/02 04:00:06;;;;;;;11.40;5.80;;;;;;;16.15;84.46;100105.72;5052514;28;20036;-78
2022/08/02 04:02:32;;;;;;;12.55;7.57;;;;;;;15.97;85.71;100105.34;5053564;28;20480;-78
2022/08/02 04:04:57;;;;;;;12.50;6.13;;;;;;;16.10;85.62;100103.03;5053149;28;20029;-78
2022/08/02 04:07:22;;;;;;;9.30;6.10;;;;;;;16.02;84.93;100118.25;5054313;28;20024;-78
2022/08/02 04:09:48;;;;;;;11.90;6.23;;;;;;;16.09;84.54;100121.47;5057210;28;20704;-78
2022/08/02 04:12:13;;;;;;;14.13;6.32;;;;;;;16.17;84.08;100113.69;5057217;28;20333;-79
2022/08/02 04:14:38;;;;;;;10.07;6.37;;;;;;;16.24;84.11;100118.81;5057090;28;20040;-79
2022/08/02 04:17:08;;;;;;;10.70;4.72;;;;;;;16.26;84.16;100128.44;5057134;28;20622;-78
2022/08/02 04:19:39;;;;;;;10.50;6.05;;;;;;;16.22;84.41;100122.69;5056974;28;20029;-78
2022/08/02 04:22:08;;;;;;;9.18;5.47;;;;;;;16.29;84.58;100121.53;5057044;28;20028;-79
2022/08/02 04:24:48;;;;;;;9.63;6.63;;;;;;;16.24;84.43;100124.31;5057517;28;20120;-79
2022/08/02 04:27:14;;;;;;;8.98;6.30;;;;;;;16.33;84.52;100122.56;5057264;28;20025;-78
2022/08/02 04:29:40;;;;;;;8.75;5.50;;;;;;;16.48;84.51;100123.47;5056810;28;20024;-79
2022/08/02 04:32:06;;;;;;;14.13;6.63;;;;;;;16.58;84.07;100126.06;5057095;28;20044;-79
2022/08/02 04:34:32;;;;;;;12.02;7.20;;;;;;;16.65;83.98;100126.53;5056712;28;20076;-79
2022/08/02 04:36:58;;;;;;;13.23;7.38;;;;;;;16.72;83.70;100128.91;5056718;28;20028;-79
2022/08/02 04:39:24;;;;;;;24.98;7.70;;;;;;;16.82;83.98;100129.88;5056990;28;20082;-78
2022/08/02 04:41:49;;;;;;;10.18;5.78;;;;;;;17.00;83.32;100128.22;5056921;28;20028;-78
2022/08/02 04:44:15;;;;;;;10.20;6.43;;;;;;;17.17;83.05;100126.91;5057109;28;20025;-78
2022/08/02 04:46:42;;;;;;;10.60;5.28;;;;;;;17.30;82.02;100128.88;5057059;28;20254;-78
2022/08/02 04:49:07;;;;;;;11.38;6.35;;;;;;;17.36;81.58;100119.41;5054382;28;20051;-79
2022/08/02 04:51:36;;;;;;;17.98;7.57;;;;;;;17.47;81.54;100116.47;5055556;28;20461;-79
2022/08/02 04:54:03;;;;;;;13.63;6.32;;;;;;;17.43;81.52;100113.47;5056392;28;20029;-78
2022/08/02 04:56:28;;;;;;;15.68;6.78;;;;;;;17.56;81.14;100117.41;5056612;28;20124;-78
2022/08/02 04:58:53;;;;;;;12.73;6.22;;;;;;;17.64;80.66;100123.31;5056885;28;20056;-79
2022/08/02 05:01:19;;;;;;;9.80;5.63;;;;;;;17.65;80.97;100124.97;5056583;28;20043;-79
2022/08/02 05:03:44;;;;;;;10.77;5.50;;;;;;;17.71;80.87;100123.75;5056589;28;20017;-78
2022/08/02 05:06:09;;;;;;;17.80;7.27;;;;;;;17.79;80.29;100123.06;5056177;28;20242;-79
2022/08/02 05:08:34;;;;;;;10.80;5.80;;;;;;;17.84;80.08;100125.69;5057264;28;20288;-78
2022/08/02 05:11:00;;;;;;;14.43;6.27;;;;;;;17.87;80.13;100128.97;5056396;28;20290;-79
2022/08/02 05:13:25;;;;;;;18.38;7.97;;;;;;;17.92;80.16;100128.88;5056320;28;20254;-79
2022/08/02 05:15:50;;;;;;;12.07;6.47;;;;;;;17.94;80.12;100129.41;5055990;28;20025;-79
2022/08/02 05:18:16;;;;;;;12.10;6.30;;;;;;;17.94;80.55;100132.16;5053382;28;20033;-78
2022/08/02 05:20:41;;;;;;;10.43;6.03;;;;;;;17.87;80.58;100129.78;5054747;28;20265;-78
2022/08/02 05:23:07;;;;;;;16.90;6.40;;;;;;;17.99;80.49;100131.22;5055909;28;20439;-78
2022/08/02 05:25:32;;;;;;;12.10;7.83;;;;;;;17.94;80.57;100121.13;5055844;28;20434;-79
2022/08/02 05:27:57;;;;;;;10.73;6.53;;;;;;;17.94;80.55;100126.66;5055696;28;20257;-78
2022/08/02 05:30:23;;;;;;;14.00;6.63;;;;;;;17.98;81.17;100127.63;5055652;28;20040;-79
2022/08/02 05:32:51;;;;;;;9.93;5.85;;;;;;;18.01;80.97;100127.03;5053829;28;20025;-79
2022/08/02 05:35:19;;;;;;;12.65;6.28;;;;;;;18.04;80.73;100131.94;5055239;28;20049;-78
2022/08/02 05:37:44;;;;;;;12.15;5.75;;;;;;;18.00;81.20;100135.63;5055612;28;20106;-79
2022/08/02 05:40:10;;;;;;;11.55;6.68;;;;;;;17.95;81.73;100133.78;5055531;28;20059;-79
2022/08/02 05:42:35;;;;;;;12.13;6.28;;;;;;;17.97;81.54;100132.34;5056336;28;20409;-79
2022/08/02 05:45:01;;;;;;;10.73;4.90;;;;;;;18.04;81.09;100142.97;5055458;28;20024;-78
2022/08/02 05:47:26;;;;;;;12.50;6.38;;;;;;;18.14;80.67;100135.63;5054887;28;20025;-79
2022/08/02 05:49:52;;;;;;;10.07;5.20;;;;;;;18.24;79.85;100140.97;5055172;28;20021;-78
2022/08/02 05:52:18;;;;;;;10.70;5.70;;;;;;;18.30;79.92;100139.75;5054980;28;20059;-79
2022/08/02 05:54:49;;;;;;;10.38;5.45;;;;;;;18.33;79.14;100132.75;5055166;28;20021;-79
2022/08/02 05:57:52;;;;;;;17.90;8.00;;;;;;;18.42;79.64;100138.38;5055589;28;20025;-78
2022/08/02 06:00:18;;;;;;;14.00;5.97;;;;;;;18.26;80.13;100122.16;5055215;28;20465;-78
2022/08/02 06:03:22;;;;;;;10.90;6.18;;;;;;;18.24;80.57;100124.41;5055052;28;20033;-78
2022/08/02 06:06:09;;;;;;;11.80;6.35;;;;;;;18.05;80.58;100125.31;5055653;28;20082;-78
2022/08/02 06:08:41;;;;;;;10.32;7.15;;;;;;;18.14;81.06;100122.66;5055358;28;20037;-78
2022/08/02 06:11:15;;;;;;;15.63;5.78;;;;;;;18.29;80.48;100124.28;5053926;28;20107;-80
2022/08/02 06:13:42;;;;;;;10.82;5.55;;;;;;;18.19;80.73;100121.75;5055255;28;20357;-79
2022/08/02 06:16:09;;;;;;;10.40;4.65;;;;;;;18.34;81.11;100122.53;5054804;28;20045;-79
2022/08/02 06:18:35;;;;;;;12.80;5.35;;;;;;;18.64;80.08;100120.22;5053664;28;20049;-78
2022/08/02 06:21:04;;;;;;;9.73;6.57;;;;;;;18.80;78.59;100123.47;5054433;28;20028;-79
2022/08/02 06:23:31;;;;;;;11.32;5.30;;;;;;;18.89;78.20;100116.06;5055118;28;20024;-87
2022/08/02 06:25:57;;;;;;;11.05;5.18;;;;;;;18.82;78.18;100112.91;5055029;28;20021;-85
2022/08/02 06:28:23;;;;;;;10.55;5.78;;;;;;;18.77;78.63;100116.59;5055527;28;20492;-79
2022/08/02 06:30:49;;;;;;;11.50;6.65;;;;;;;18.88;78.54;100116.38;5051227;28;20021;-79
2022/08/02 06:33:15;;;;;;;13.27;6.05;;;;;;;19.09;77.55;100115.88;5054481;28;20111;-79
2022/08/02 06:35:40;;;;;;;21.42;6.95;;;;;;;19.15;76.75;100127.66;5054095;28;20176;-79
2022/08/02 06:38:08;;;;;;;13.03;6.53;;;;;;;18.86;77.62;100121.38;5053028;28;20024;-79
2022/08/02 06:40:44;;;;;;;12.98;5.05;;;;;;;18.85;78.32;100114.25;5055009;28;20029;-79
2022/08/02 06:43:21;;;;;;;13.13;4.53;;;;;;;18.95;77.83;100111.25;5054946;28;20029;-79
2022/08/02 06:45:46;;;;;;;12.40;5.13;;;;;;;18.93;77.24;100099.69;5054043;28;20075;-79
2022/08/02 06:48:12;;;;;;;11.70;4.65;;;;;;;19.17;77.01;100092.22;5054016;28;20037;-78
2022/08/02 06:50:38;;;;;;;10.18;4.72;;;;;;;19.31;76.11;100104.03;5054629;28;20029;-80
2022/08/02 06:53:05;;;;;;;8.77;4.80;;;;;;;19.47;75.68;100101.69;5054472;28;20115;-78
2022/08/02 06:55:31;;;;;;;7.82;5.00;;;;;;;19.31;76.68;100108.72;5054261;28;20029;-82
2022/08/02 06:57:57;;;;;;;7.80;4.57;;;;;;;19.42;76.25;100104.59;5055431;28;20070;-94
2022/08/02 07:00:22;;;;;;;6.13;3.30;;;;;;;19.37;75.37;100099.19;5054647;28;20099;-82
2022/08/02 07:02:48;;;;;;;10.60;3.85;;;;;;;19.36;75.36;100105.84;5054504;28;20052;-83
2022/08/02 07:05:14;;;;;;;14.63;4.82;;;;;;;19.34;74.23;100111.66;5055167;28;20032;-82
2022/08/02 07:07:39;;;;;;;6.05;3.45;;;;;;;19.45;72.70;100112.22;5053862;28;20051;-82
2022/08/02 07:10:05;;;;;;;13.20;4.78;;;;;;;19.47;72.73;100107.19;5051937;28;20098;-82
2022/08/02 07:12:32;;;;;;;6.45;3.50;;;;;;;19.62;72.68;100107.94;5054808;28;20024;-82
2022/08/02 07:14:58;;;;;;;9.55;3.80;;;;;;;19.55;73.46;100113.09;5054136;28;20021;-84
2022/08/02 07:17:24;;;;;;;10.15;3.88;;;;;;;19.78;72.80;100110.25;5054823;28;20036;-82
2022/08/02 07:19:49;;;;;;;7.03;4.15;;;;;;;19.78;72.58;100110.25;5051913;28;20521;-85
2022/08/02 07:22:17;;;;;;;7.43;3.43;;;;;;;19.69;72.62;100108.28;5051730;28;20454;-83
2022/08/02 07:24:42;;;;;;;6.40;3.53;;;;;;;19.64;71.92;100104.84;5054829;28;20242;-82
2022/08/02 07:27:08;;;;;;;9.27;3.93;;;;;;;19.74;73.02;100107.34;5054906;28;20117;-83
2022/08/02 07:29:33;;;;;;;5.63;3.38;;;;;;;19.77;71.47;100108.66;5054368;28;20269;-83
2022/08/02 07:31:58;;;;;;;8.13;4.00;;;;;;;19.91;70.34;100111.31;5052476;28;20056;-77
2022/08/02 07:34:23;;;;;;;5.95;3.75;;;;;;;19.83;71.12;100118.44;5053825;28;20239;-83
2022/08/02 07:36:49;;;;;;;8.00;2.90;;;;;;;19.89;70.58;100111.59;5052742;28;20035;-83
2022/08/02 07:39:14;;;;;;;8.87;3.63;;;;;;;19.89;69.28;100108.84;5054212;28;20606;-83
2022/08/02 07:41:39;;;;;;;15.82;4.80;;;;;;;19.94;67.29;100103.19;5054089;28;20250;-83
2022/08/02 07:44:05;;;;;;;7.05;3.28;;;;;;;19.91;68.16;100112.09;5058129;28;20032;-83
2022/08/02 07:46:32;;;;;;;13.20;4.05;;;;;;;20.00;68.45;100108.56;5057930;28;20021;-83
2022/08/02 07:48:57;;;;;;;6.47;2.78;;;;;;;19.98;67.68;100103.34;5058456;28;20045;-83
2022/08/02 07:51:22;;;;;;;6.93;3.20;;;;;;;20.27;65.59;100109.47;5058226;28;20074;-83
2022/08/02 07:53:48;;;;;;;7.70;3.85;;;;;;;20.09;66.88;100109.44;5056211;28;20060;-82
2022/08/02 07:56:13;;;;;;;5.15;3.13;;;;;;;20.10;68.07;100115.75;5055622;28;20063;-82
2022/08/02 07:58:40;;;;;;;8.00;3.42;;;;;;;20.11;68.00;100109.94;5058338;28;20032;-83
2022/08/02 08:01:05;;;;;;;6.07;2.80;;;;;;;20.28;67.05;100111.09;5057540;28;20033;-81
2022/08/02 08:03:30;;;;;;;7.37;3.47;;;;;;;20.35;67.08;100097.59;5055880;28;20343;-83
2022/08/02 08:05:56;;;;;;;4.88;2.83;;;;;;;20.39;65.44;100106.06;5057085;28;20308;-82
2022/08/02 08:08:21;;;;;;;10.55;3.60;;;;;;;20.43;66.04;100101.53;5057627;28;20021;-81
2022/08/02 08:10:48;;;;;;;6.72;3.55;;;;;;;20.42;65.96;100097.94;5051318;28;20029;-80
2022/08/02 08:13:14;;;;;;;5.05;3.15;;;;;;;20.34;66.38;100098.72;5055354;28;20401;-81
2022/08/02 08:15:39;;;;;;;5.40;2.63;;;;;;;20.41;65.45;100096.31;5056101;28;20405;-81
2022/08/02 08:18:04;;;;;;;8.83;3.33;;;;;;;20.61;63.11;100094.03;5047175;28;20082;-83
2022/08/02 08:20:29;;;;;;;4.60;2.75;;;;;;;20.73;63.96;100100.88;5046883;28;20265;-83
2022/08/02 08:22:55;;;;;;;5.63;2.70;;;;;;;20.81;63.41;100093.72;5048273;28;20021;-82
2022/08/02 08:25:20;;;;;;;6.47;2.97;;;;;;;20.93;62.89;100098.59;5047212;28;20052;-82
2022/08/02 08:27:51;;;;;;;4.20;2.33;;;;;;;20.93;63.30;100095.84;5047655;28;20624;-85
2022/08/02 08:30:18;;;;;;;9.05;2.72;;;;;;;20.88;63.11;100094.84;5046596;28;20068;-84
2022/08/02 08:32:44;;;;;;;3.85;2.38;;;;;;;21.08;61.74;100080.66;5047154;28;20096;-83
2022/08/02 08:35:10;;;;;;;4.25;2.85;;;;;;;21.15;61.76;100085.72;5046177;28;20532;-83
2022/08/02 08:37:36;;;;;;;5.20;2.35;;;;;;;21.17;62.01;100081.47;5047570;28;20492;-82
2022/08/02 08:40:08;;;;;;;7.60;2.63;;;;;;;21.08;58.84;100075.13;5047651;28;20060;-83
2022/08/02 08:42:37;;;;;;;3.28;1.83;;;;;;;21.12;59.50;100076.09;5048680;28;20433;-83
2022/08/02 08:45:04;;;;;;;4.45;2.35;;;;;;;21.14;60.01;100078.53;5049019;28;20113;-83
2022/08/02 08:47:39;;;;;;;3.95;2.05;;;;;;;21.32;59.83;100073.75;5048177;28;20021;-83
2022/08/02 08:50:25;;;;;;;7.03;1.98;;;;;;;21.39;57.77;100078.81;5047659;28;20116;-82
2022/08/02 08:52:56;;;;;;;6.80;1.83;;;;;;;21.60;58.74;100080.84;5046465;28;20530;-82
2022/08/02 08:55:25;;;;;;;3.50;2.22;;;;;;;21.69;57.76;100079.69;5048434;28;20064;-83
2022/08/02 08:57:53;;;;;;;4.57;2.35;;;;;;;21.79;57.97;100078.47;5047380;28;20037;-83
2022/08/02 09:00:19;;;;;;;2.72;1.85;;;;;;;21.98;57.10;100076.47;5048659;28;20029;-82
2022/08/02 09:02:45;;;;;;;5.68;2.38;;;;;;;22.00;55.72;100074.97;5048264;28;20029;-82
2022/08/02 09:05:13;;;;;;;14.98;2.45;;;;;;;22.01;55.63;100065.50;5048066;28;20025;-82
2022/08/02 09:07:40;;;;;;;5.07;2.63;;;;;;;22.04;56.54;100070.38;5048282;28;20104;-84
2022/08/02 09:10:44;;;;;;;8.25;3.75;;;;;;;22.30;55.75;100076.09;5046845;28;20385;-82
2022/08/02 09:13:13;;;;;;;5.63;2.92;;;;;;;22.36;54.16;100063.63;5048072;28;20494;-84
2022/08/02 09:15:40;;;;;;;4.78;2.67;;;;;;;22.41;55.61;100066.22;5048355;28;20261;-83
2022/08/02 09:18:06;;;;;;;5.63;2.55;;;;;;;22.42;55.42;100067.84;5047551;28;20145;-84
2022/08/02 09:20:51;;;;;;;6.80;3.05;;;;;;;22.61;55.81;100059.03;5045548;28;20033;-82
2022/08/02 09:23:17;;;;;;;4.50;2.83;;;;;;;22.69;54.99;100051.81;5027592;28;20112;-83
2022/08/02 09:25:55;;;;;;;4.03;2.63;;;;;;;22.76;54.18;100061.56;5027579;28;20536;-82
2022/08/02 09:28:21;;;;;;;8.00;2.95;;;;;;;22.62;55.49;100052.31;5027755;28;20037;-82
2022/08/02 09:30:46;;;;;;;10.35;3.40;;;;;;;22.96;55.69;100057.13;5045333;28;20029;-82
2022/08/02 09:33:11;;;;;;;7.47;4.17;;;;;;;23.11;54.59;100052.06;5046120;28;20029;-86
2022/08/02 09:35:41;;;;;;;5.20;3.03;;;;;;;23.11;54.69;100060.41;5047900;28;20270;-82
2022/08/02 09:38:11;;;;;;;4.03;2.42;;;;;;;22.94;55.97;100060.22;5048043;28;20265;-82
2022/08/02 09:40:38;;;;;;;6.00;3.40;;;;;;;23.15;55.15;100052.97;5046249;28;20316;-82
2022/08/02 09:43:04;;;;;;;9.38;4.28;;;;;;;23.20;54.91;100055.56;5046359;28;20501;-82
2022/08/02 09:45:31;;;;;;;9.77;4.97;;;;;;;23.31;54.43;100059.50;5047590;28;20120;-82
2022/08/02 09:47:57;;;;;;;7.38;4.80;;;;;;;23.43;53.87;100064.28;5046749;28;20437;-83
2022/08/02 09:50:22;;;;;;;9.65;4.70;;;;;;;23.44;53.99;100059.53;5045979;28;20025;-82
2022/08/02 09:52:47;;;;;;;5.55;3.75;;;;;;;23.55;53.47;100059.94;5047225;28;20108;-82
2022/08/02 09:55:13;;;;;;;7.10;4.00;;;;;;;23.61;53.57;100068.84;5047028;28;20070;-82
2022/08/02 09:57:38;;;;;;;4.63;3.17;;;;;;;23.71;53.64;100064.78;5046972;28;20325;-83
2022/08/02 10:00:09;;;;;;;7.57;3.20;;;;;;;23.80;53.77;100065.47;5046501;28;20036;-82
2022/08/02 10:02:35;;;;;;;8.32;4.22;;;;;;;24.13;52.74;100064.53;5047226;28;20025;-83
2022/08/02 10:05:00;;;;;;;6.97;3.73;;;;;;;24.10;52.96;100065.22;5046468;28;20033;-82
2022/08/02 10:07:25;;;;;;;6.10;3.30;;;;;;;23.74;54.27;100066.88;5046920;28;20599;-84
2022/08/02 10:09:51;;;;;;;9.93;3.95;;;;;;;23.90;53.04;100065.00;5046983;28;20282;-84
2022/08/02 10:12:21;;;;;;;5.95;3.33;;;;;;;23.80;54.34;100059.91;5047046;28;20039;-84
2022/08/02 10:14:50;;;;;;;6.22;3.33;;;;;;;23.59;55.40;100055.28;5045377;28;20035;-82
2022/08/02 10:17:17;;;;;;;13.57;3.92;;;;;;;23.79;54.95;100055.53;5047252;28;20554;-82
2022/08/02 10:19:44;;;;;;;6.85;3.58;;;;;;;23.94;53.37;100053.19;5045797;28;20028;-82
2022/08/02 10:22:12;;;;;;;7.97;4.03;;;;;;;23.89;54.45;100054.22;5047078;28;20426;-81
2022/08/02 10:24:39;;;;;;;6.80;3.35;;;;;;;24.00;54.86;100049.81;5047347;28;20031;-82
2022/08/02 10:27:17;;;;;;;8.20;4.28;;;;;;;24.05;53.93;100054.34;5046872;28;20036;-82
2022/08/02 10:29:45;;;;;;;6.97;3.85;;;;;;;24.13;54.04;100055.34;5045475;28;20362;-83
2022/08/02 10:32:30;;;;;;;10.40;3.80;;;;;;;24.16;53.62;100053.84;5046002;28;20386;-84
2022/08/02 10:35:06;;;;;;;4.95;3.55;;;;;;;24.19;53.43;100053.13;5046171;28;20033;-83
2022/08/02 10:37:35;;;;;;;8.23;3.65;;;;;;;24.12;54.03;100048.97;5046503;28;20036;-82
2022/08/02 10:40:00;;;;;;;5.13;3.30;;;;;;;24.00;55.05;100046.22;5045563;28;20029;-85
2022/08/02 10:42:41;;;;;;;5.80;2.63;;;;;;;24.33;52.51;100045.25;5046339;28;20476;-82
2022/08/02 10:45:11;;;;;;;4.53;2.78;;;;;;;24.53;52.79;100044.63;5046474;28;20092;-84
2022/08/02 10:47:36;;;;;;;5.63;2.85;;;;;;;24.21;53.57;100039.69;5045839;28;20048;-83
2022/08/02 10:50:02;;;;;;;7.75;3.22;;;;;;;24.66;52.71;100042.59;5043845;28;20029;-82
2022/08/02 10:52:31;;;;;;;6.13;3.60;;;;;;;24.99;51.64;100038.75;5045966;28;20029;-83
2022/08/02 10:55:10;;;;;;;7.25;3.65;;;;;;;25.01;51.80;100042.00;5045867;28;20032;-83
2022/08/02 10:57:35;;;;;;;6.75;3.90;;;;;;;25.02;50.94;100040.81;5046423;28;20032;-82
2022/08/02 11:00:23;;;;;;;7.63;4.03;;;;;;;25.07;50.12;100023.00;5044420;28;20062;-83
2022/08/02 11:02:50;;;;;;;9.32;4.47;;;;;;;25.06;51.47;100038.94;5045853;28;20052;-84
2022/08/02 11:05:25;;;;;;;5.47;3.42;;;;;;;25.08;51.47;100030.19;5045471;28;20052;-82
2022/08/02 11:07:50;;;;;;;6.43;3.97;;;;;;;25.32;51.03;100022.03;5036257;28;20029;-82
2022/08/02 11:10:25;;;;;;;6.82;3.80;;;;;;;25.12;51.70;100033.09;5037622;28;20533;-82
2022/08/02 11:13:01;;;;;;;12.95;5.25;;;;;;;25.02;52.22;100026.09;5040315;28;20025;-84
2022/08/02 11:15:27;;;;;;;6.88;3.88;;;;;;;25.08;51.22;100019.03;5045583;28;20078;-82
2022/08/02 11:17:57;;;;;;;6.97;3.45;;;;;;;25.08;51.30;100021.03;5030796;28;20026;-84
2022/08/02 11:20:25;;;;;;;5.55;3.58;;;;;;;24.84;51.91;100021.59;5038699;28;20033;-81
2022/08/02 11:22:52;;;;;;;6.10;3.78;;;;;;;24.82;51.13;100021.16;5045789;28;20039;-81
2022/08/02 11:25:20;;;;;;;6.03;3.03;;;;;;;24.57;52.47;100018.47;5045220;28;20029;-82
2022/08/02 11:27:45;;;;;;;5.88;3.72;;;;;;;24.72;52.24;100016.91;5045594;28;20381;-83
2022/08/02 11:30:11;;;;;;;6.78;3.78;;;;;;;24.88;52.39;100021.69;5044122;28;20043;-83
2022/08/02 11:32:37;;;;;;;6.57;3.92;;;;;;;24.94;51.26;100011.09;5045168;28;20366;-82